sensor_id;sensor_type;location;lat;lon;timestamp;P1;durP1;ratioP1;P2;durP2;ratioP2
6121;SDS011;3091;51.506;7.672;2023-02-08T00:01:11;18.27;;;17.47;;
6121;SDS011;3091;51.506;7.672;2023-02-08T00:03:38;20.77;;;19.50;;
6121;SDS011;3091;51.506;7.672;2023-02-08T00:06:04;18.20;;;17.30;;
6121;SDS011;3091;51.506;7.672;2023-02-08T00:08:30;17.43;;;16.70;;
6121;SDS011;3091;51.506;7.672;2023-02-08T00:10:57;22.10;;;21.13;;
6121;SDS011;3091;51.506;7.672;2023-02-08T00:13:25;18.40;;;17.60;;
6121;SDS011;3091;51.506;7.672;2023-02-08T00:15:52;33.80;;;20.97;;
6121;SDS011;3091;51.506;7.672;2023-02-08T00:18:19;18.13;;;17.33;;
6121;SDS011;3091;51.506;7.672;2023-02-08T00:20:45;17.30;;;16.50;;
6121;SDS011;3091;51.506;7.672;2023-02-08T00:23:11;17.60;;;16.80;;
6121;SDS011;3091;51.506;7.672;2023-02-08T00:25:38;17.40;;;16.60;;
6121;SDS011;3091;51.506;7.672;2023-02-08T00:28:04;18.50;;;17.60;;
6121;SDS011;3091;51.506;7.672;2023-02-08T00:30:31;20.10;;;19.10;;
6121;SDS011;3091;51.506;7.672;2023-02-08T00:32:57;16.87;;;16.17;;
6121;SDS011;3091;51.506;7.672;2023-02-08T00:35:25;17.83;;;17.03;;
6121;SDS011;3091;51.506;7.672;2023-02-08T00:37:53;16.83;;;16.13;;
6121;SDS011;3091;51.506;7.672;2023-02-08T00:40:22;17.30;;;16.50;;
6121;SDS011;3091;51.506;7.672;2023-02-08T00:42:50;18.53;;;17.73;;
6121;SDS011;3091;51.506;7.672;2023-02-08T00:45:16;17.20;;;16.40;;
6121;SDS011;3091;51.506;7.672;2023-02-08T00:47:42;17.50;;;16.70;;
6121;SDS011;3091;51.506;7.672;2023-02-08T00:50:09;17.03;;;16.30;;
6121;SDS011;3091;51.506;7.672;2023-02-08T00:52:35;17.20;;;16.40;;
6121;SDS011;3091;51.506;7.672;2023-02-08T00:55:01;18.97;;;18.17;;
6121;SDS011;3091;51.506;7.672;2023-02-08T00:57:27;19.23;;;18.43;;
6121;SDS011;3091;51.506;7.672;2023-02-08T00:59:53;17.60;;;16.80;;
6121;SDS011;3091;51.506;7.672;2023-02-08T01:02:19;17.80;;;17.00;;
6121;SDS011;3091;51.506;7.672;2023-02-08T01:04:45;17.10;;;16.40;;
6121;SDS011;3091;51.506;7.672;2023-02-08T01:07:14;18.63;;;17.73;;
6121;SDS011;3091;51.506;7.672;2023-02-08T01:09:40;18.70;;;17.83;;
6121;SDS011;3091;51.506;7.672;2023-02-08T01:12:06;17.23;;;16.53;;
6121;SDS011;3091;51.506;7.672;2023-02-08T01:14:32;17.77;;;17.07;;
6121;SDS011;3091;51.506;7.672;2023-02-08T01:16:58;17.73;;;17.03;;
6121;SDS011;3091;51.506;7.672;2023-02-08T01:19:24;20.30;;;19.40;;
6121;SDS011;3091;51.506;7.672;2023-02-08T01:21:50;17.83;;;17.03;;
6121;SDS011;3091;51.506;7.672;2023-02-08T01:24:16;19.90;;;19.10;;
6121;SDS011;3091;51.506;7.672;2023-02-08T01:26:42;17.80;;;17.10;;
6121;SDS011;3091;51.506;7.672;2023-02-08T01:29:08;17.70;;;17.00;;
6121;SDS011;3091;51.506;7.672;2023-02-08T01:31:36;17.90;;;17.20;;
6121;SDS011;3091;51.506;7.672;2023-02-08T01:34:02;17.80;;;17.10;;
6121;SDS011;3091;51.506;7.672;2023-02-08T01:36:29;18.20;;;17.50;;
6121;SDS011;3091;51.506;7.672;2023-02-08T01:38:58;18.63;;;17.87;;
6121;SDS011;3091;51.506;7.672;2023-02-08T01:41:26;18.60;;;17.80;;
6121;SDS011;3091;51.506;7.672;2023-02-08T01:44:00;17.30;;;16.60;;
6121;SDS011;3091;51.506;7.672;2023-02-08T01:46:27;18.27;;;17.57;;
6121;SDS011;3091;51.506;7.672;2023-02-08T01:49:00;18.13;;;17.43;;
6121;SDS011;3091;51.506;7.672;2023-02-08T01:51:28;17.63;;;16.93;;
6121;SDS011;3091;51.506;7.672;2023-02-08T01:53:55;17.60;;;16.90;;
6121;SDS011;3091;51.506;7.672;2023-02-08T01:56:24;17.47;;;16.77;;
6121;SDS011;3091;51.506;7.672;2023-02-08T01:58:52;17.60;;;16.90;;
6121;SDS011;3091;51.506;7.672;2023-02-08T02:01:19;17.30;;;16.60;;
6121;SDS011;3091;51.506;7.672;2023-02-08T02:03:45;17.40;;;16.70;;
6121;SDS011;3091;51.506;7.672;2023-02-08T02:06:12;19.07;;;18.27;;
6121;SDS011;3091;51.506;7.672;2023-02-08T02:08:42;17.80;;;17.10;;
6121;SDS011;3091;51.506;7.672;2023-02-08T02:11:09;17.90;;;17.20;;
6121;SDS011;3091;51.506;7.672;2023-02-08T02:13:35;20.40;;;19.30;;
6121;SDS011;3091;51.506;7.672;2023-02-08T02:16:02;17.70;;;17.00;;
6121;SDS011;3091;51.506;7.672;2023-02-08T02:18:29;18.77;;;17.97;;
6121;SDS011;3091;51.506;7.672;2023-02-08T02:24:03;17.50;;;16.80;;
6121;SDS011;3091;51.506;7.672;2023-02-08T02:29:16;17.23;;;16.53;;
6121;SDS011;3091;51.506;7.672;2023-02-08T02:41:55;17.50;;;16.80;;
6121;SDS011;3091;51.506;7.672;2023-02-08T02:44:55;17.10;;;16.40;;
6121;SDS011;3091;51.506;7.672;2023-02-08T02:52:46;17.40;;;16.70;;
6121;SDS011;3091;51.506;7.672;2023-02-08T02:55:14;16.70;;;16.00;;
6121;SDS011;3091;51.506;7.672;2023-02-08T02:57:41;17.17;;;16.47;;
6121;SDS011;3091;51.506;7.672;2023-02-08T03:00:09;17.67;;;16.97;;
6121;SDS011;3091;51.506;7.672;2023-02-08T03:02:35;16.60;;;15.90;;
6121;SDS011;3091;51.506;7.672;2023-02-08T03:05:02;18.63;;;17.83;;
6121;SDS011;3091;51.506;7.672;2023-02-08T03:10:05;17.00;;;16.30;;
6121;SDS011;3091;51.506;7.672;2023-02-08T03:26:15;17.20;;;16.50;;
6121;SDS011;3091;51.506;7.672;2023-02-08T03:31:15;17.20;;;16.50;;
6121;SDS011;3091;51.506;7.672;2023-02-08T03:33:45;17.07;;;16.37;;
6121;SDS011;3091;51.506;7.672;2023-02-08T03:36:16;17.20;;;16.50;;
6121;SDS011;3091;51.506;7.672;2023-02-08T03:38:45;17.40;;;16.70;;
6121;SDS011;3091;51.506;7.672;2023-02-08T03:41:14;16.80;;;16.10;;
6121;SDS011;3091;51.506;7.672;2023-02-08T03:43:42;18.27;;;17.47;;
6121;SDS011;3091;51.506;7.672;2023-02-08T03:46:31;16.90;;;16.20;;
6121;SDS011;3091;51.506;7.672;2023-02-08T03:48:57;17.10;;;16.40;;
6121;SDS011;3091;51.506;7.672;2023-02-08T03:51:24;17.00;;;16.30;;
6121;SDS011;3091;51.506;7.672;2023-02-08T03:53:51;16.93;;;16.23;;
6121;SDS011;3091;51.506;7.672;2023-02-08T03:56:25;16.33;;;15.73;;
6121;SDS011;3091;51.506;7.672;2023-02-08T03:59:03;16.47;;;15.87;;
6121;SDS011;3091;51.506;7.672;2023-02-08T04:01:35;16.80;;;16.10;;
6121;SDS011;3091;51.506;7.672;2023-02-08T04:04:03;16.60;;;16.00;;
6121;SDS011;3091;51.506;7.672;2023-02-08T04:06:29;17.00;;;16.30;;
6121;SDS011;3091;51.506;7.672;2023-02-08T04:08:55;16.70;;;16.00;;
6121;SDS011;3091;51.506;7.672;2023-02-08T04:11:21;16.60;;;15.90;;
6121;SDS011;3091;51.506;7.672;2023-02-08T04:13:47;17.40;;;16.70;;
6121;SDS011;3091;51.506;7.672;2023-02-08T04:16:13;17.10;;;16.40;;
6121;SDS011;3091;51.506;7.672;2023-02-08T04:18:39;17.40;;;16.70;;
6121;SDS011;3091;51.506;7.672;2023-02-08T04:21:05;17.37;;;16.67;;
6121;SDS011;3091;51.506;7.672;2023-02-08T04:23:31;18.83;;;18.00;;
6121;SDS011;3091;51.506;7.672;2023-02-08T04:25:57;19.97;;;18.77;;
6121;SDS011;3091;51.506;7.672;2023-02-08T04:28:23;17.07;;;16.37;;
6121;SDS011;3091;51.506;7.672;2023-02-08T04:30:49;17.30;;;16.60;;
6121;SDS011;3091;51.506;7.672;2023-02-08T04:33:15;17.00;;;16.30;;
6121;SDS011;3091;51.506;7.672;2023-02-08T04:35:41;16.87;;;16.17;;
6121;SDS011;3091;51.506;7.672;2023-02-08T04:38:08;17.00;;;16.30;;
6121;SDS011;3091;51.506;7.672;2023-02-08T04:40:36;17.20;;;16.50;;
6121;SDS011;3091;51.506;7.672;2023-02-08T04:43:02;16.97;;;16.27;;
6121;SDS011;3091;51.506;7.672;2023-02-08T04:45:28;17.20;;;16.50;;
6121;SDS011;3091;51.506;7.672;2023-02-08T04:47:56;17.03;;;16.33;;
6121;SDS011;3091;51.506;7.672;2023-02-08T04:50:22;16.83;;;16.13;;
6121;SDS011;3091;51.506;7.672;2023-02-08T04:52:48;17.10;;;16.40;;
6121;SDS011;3091;51.506;7.672;2023-02-08T04:55:14;16.47;;;15.77;;
6121;SDS011;3091;51.506;7.672;2023-02-08T04:57:40;16.70;;;16.00;;
6121;SDS011;3091;51.506;7.672;2023-02-08T05:00:08;21.37;;;20.43;;
6121;SDS011;3091;51.506;7.672;2023-02-08T05:02:35;16.90;;;16.20;;
6121;SDS011;3091;51.506;7.672;2023-02-08T05:05:01;16.10;;;15.47;;
6121;SDS011;3091;51.506;7.672;2023-02-08T05:07:27;17.73;;;16.93;;
6121;SDS011;3091;51.506;7.672;2023-02-08T05:09:53;16.70;;;16.00;;
6121;SDS011;3091;51.506;7.672;2023-02-08T05:12:19;16.40;;;15.70;;
6121;SDS011;3091;51.506;7.672;2023-02-08T05:14:45;16.60;;;15.90;;
6121;SDS011;3091;51.506;7.672;2023-02-08T05:17:11;17.43;;;16.73;;
6121;SDS011;3091;51.506;7.672;2023-02-08T05:19:37;16.67;;;15.97;;
6121;SDS011;3091;51.506;7.672;2023-02-08T05:22:03;17.07;;;16.37;;
6121;SDS011;3091;51.506;7.672;2023-02-08T05:24:29;19.90;;;19.00;;
6121;SDS011;3091;51.506;7.672;2023-02-08T05:26:55;16.70;;;16.10;;
6121;SDS011;3091;51.506;7.672;2023-02-08T05:29:21;19.73;;;18.73;;
6121;SDS011;3091;51.506;7.672;2023-02-08T05:31:47;16.93;;;16.33;;
6121;SDS011;3091;51.506;7.672;2023-02-08T05:34:13;16.43;;;15.83;;
6121;SDS011;3091;51.506;7.672;2023-02-08T05:36:39;16.30;;;15.70;;
6121;SDS011;3091;51.506;7.672;2023-02-08T05:39:05;16.70;;;16.10;;
6121;SDS011;3091;51.506;7.672;2023-02-08T05:41:33;16.23;;;15.70;;
6121;SDS011;3091;51.506;7.672;2023-02-08T05:43:59;15.63;;;14.93;;
6121;SDS011;3091;51.506;7.672;2023-02-08T05:46:25;15.27;;;14.60;;
6121;SDS011;3091;51.506;7.672;2023-02-08T05:48:51;13.20;;;12.80;;
6121;SDS011;3091;51.506;7.672;2023-02-08T05:51:17;12.30;;;11.90;;
6121;SDS011;3091;51.506;7.672;2023-02-08T05:53:44;11.70;;;11.30;;
6121;SDS011;3091;51.506;7.672;2023-02-08T05:56:10;13.30;;;12.80;;
6121;SDS011;3091;51.506;7.672;2023-02-08T05:58:37;11.20;;;10.90;;
6121;SDS011;3091;51.506;7.672;2023-02-08T06:01:09;11.10;;;10.80;;
6121;SDS011;3091;51.506;7.672;2023-02-08T06:03:36;11.33;;;11.03;;
6121;SDS011;3091;51.506;7.672;2023-02-08T06:06:02;11.33;;;11.03;;
6121;SDS011;3091;51.506;7.672;2023-02-08T06:08:28;12.70;;;12.23;;
6121;SDS011;3091;51.506;7.672;2023-02-08T06:10:54;13.13;;;12.63;;
6121;SDS011;3091;51.506;7.672;2023-02-08T06:13:20;13.73;;;13.13;;
6121;SDS011;3091;51.506;7.672;2023-02-08T06:15:46;12.20;;;11.80;;
6121;SDS011;3091;51.506;7.672;2023-02-08T06:18:12;12.23;;;11.83;;
6121;SDS011;3091;51.506;7.672;2023-02-08T06:20:38;12.00;;;11.60;;
6121;SDS011;3091;51.506;7.672;2023-02-08T06:23:04;12.50;;;12.10;;
6121;SDS011;3091;51.506;7.672;2023-02-08T06:25:30;12.90;;;12.50;;
6121;SDS011;3091;51.506;7.672;2023-02-08T06:27:56;13.27;;;12.87;;
6121;SDS011;3091;51.506;7.672;2023-02-08T06:30:22;13.50;;;13.00;;
6121;SDS011;3091;51.506;7.672;2023-02-08T06:32:50;13.63;;;13.13;;
6121;SDS011;3091;51.506;7.672;2023-02-08T06:35:16;16.00;;;15.40;;
6121;SDS011;3091;51.506;7.672;2023-02-08T06:37:42;15.47;;;14.87;;
6121;SDS011;3091;51.506;7.672;2023-02-08T06:40:09;14.50;;;14.00;;
6121;SDS011;3091;51.506;7.672;2023-02-08T06:42:35;14.60;;;14.10;;
6121;SDS011;3091;51.506;7.672;2023-02-08T06:45:01;17.27;;;16.47;;
6121;SDS011;3091;51.506;7.672;2023-02-08T06:47:27;14.30;;;13.80;;
6121;SDS011;3091;51.506;7.672;2023-02-08T06:49:53;14.43;;;13.93;;
6121;SDS011;3091;51.506;7.672;2023-02-08T06:52:22;15.87;;;15.27;;
6121;SDS011;3091;51.506;7.672;2023-02-08T06:54:50;14.80;;;14.30;;
6121;SDS011;3091;51.506;7.672;2023-02-08T06:57:16;15.83;;;15.13;;
6121;SDS011;3091;51.506;7.672;2023-02-08T06:59:42;13.77;;;13.27;;
6121;SDS011;3091;51.506;7.672;2023-02-08T07:02:12;14.00;;;13.50;;
6121;SDS011;3091;51.506;7.672;2023-02-08T07:04:38;14.07;;;13.57;;
6121;SDS011;3091;51.506;7.672;2023-02-08T07:07:04;13.60;;;13.10;;
6121;SDS011;3091;51.506;7.672;2023-02-08T07:09:32;13.30;;;12.90;;
6121;SDS011;3091;51.506;7.672;2023-02-08T07:11:59;12.93;;;12.53;;
6121;SDS011;3091;51.506;7.672;2023-02-08T07:14:29;14.70;;;14.20;;
6121;SDS011;3091;51.506;7.672;2023-02-08T07:16:55;12.40;;;12.00;;
6121;SDS011;3091;51.506;7.672;2023-02-08T07:19:21;11.77;;;11.37;;
6121;SDS011;3091;51.506;7.672;2023-02-08T07:21:47;12.33;;;11.93;;
6121;SDS011;3091;51.506;7.672;2023-02-08T07:24:13;13.87;;;13.37;;
6121;SDS011;3091;51.506;7.672;2023-02-08T07:26:39;11.00;;;10.70;;
6121;SDS011;3091;51.506;7.672;2023-02-08T07:29:05;11.20;;;10.90;;
6121;SDS011;3091;51.506;7.672;2023-02-08T07:31:31;10.67;;;10.37;;
6121;SDS011;3091;51.506;7.672;2023-02-08T07:33:57;10.60;;;10.30;;
6121;SDS011;3091;51.506;7.672;2023-02-08T07:36:23;11.67;;;11.23;;
6121;SDS011;3091;51.506;7.672;2023-02-08T07:38:49;12.27;;;11.87;;
6121;SDS011;3091;51.506;7.672;2023-02-08T07:41:15;11.80;;;11.20;;
6121;SDS011;3091;51.506;7.672;2023-02-08T07:43:42;11.50;;;11.10;;
6121;SDS011;3091;51.506;7.672;2023-02-08T07:46:11;10.37;;;10.07;;
6121;SDS011;3091;51.506;7.672;2023-02-08T07:48:37;11.53;;;11.10;;
6121;SDS011;3091;51.506;7.672;2023-02-08T07:51:03;10.37;;;10.07;;
6121;SDS011;3091;51.506;7.672;2023-02-08T07:53:29;10.43;;;10.13;;
6121;SDS011;3091;51.506;7.672;2023-02-08T07:55:56;11.90;;;11.50;;
6121;SDS011;3091;51.506;7.672;2023-02-08T07:58:22;10.90;;;10.60;;
6121;SDS011;3091;51.506;7.672;2023-02-08T08:00:48;12.67;;;11.97;;
6121;SDS011;3091;51.506;7.672;2023-02-08T08:03:14;11.90;;;11.50;;
6121;SDS011;3091;51.506;7.672;2023-02-08T08:05:40;11.60;;;11.20;;
6121;SDS011;3091;51.506;7.672;2023-02-08T08:08:07;12.20;;;11.70;;
6121;SDS011;3091;51.506;7.672;2023-02-08T08:10:33;12.73;;;12.23;;
6121;SDS011;3091;51.506;7.672;2023-02-08T08:12:59;14.17;;;13.37;;
6121;SDS011;3091;51.506;7.672;2023-02-08T08:15:25;12.50;;;12.00;;
6121;SDS011;3091;51.506;7.672;2023-02-08T08:17:52;12.70;;;12.30;;
6121;SDS011;3091;51.506;7.672;2023-02-08T08:20:18;12.43;;;12.03;;
6121;SDS011;3091;51.506;7.672;2023-02-08T08:22:44;13.30;;;12.80;;
6121;SDS011;3091;51.506;7.672;2023-02-08T08:25:11;13.83;;;13.33;;
6121;SDS011;3091;51.506;7.672;2023-02-08T08:27:39;13.10;;;12.70;;
6121;SDS011;3091;51.506;7.672;2023-02-08T08:30:10;12.83;;;12.43;;
6121;SDS011;3091;51.506;7.672;2023-02-08T08:32:36;14.20;;;13.60;;
6121;SDS011;3091;51.506;7.672;2023-02-08T08:35:03;15.20;;;14.50;;
6121;SDS011;3091;51.506;7.672;2023-02-08T08:37:29;13.57;;;13.07;;
6121;SDS011;3091;51.506;7.672;2023-02-08T08:39:56;13.00;;;12.60;;
6121;SDS011;3091;51.506;7.672;2023-02-08T08:42:23;13.17;;;12.70;;
6121;SDS011;3091;51.506;7.672;2023-02-08T08:44:55;14.00;;;13.50;;
6121;SDS011;3091;51.506;7.672;2023-02-08T08:47:20;13.40;;;12.90;;
6121;SDS011;3091;51.506;7.672;2023-02-08T08:49:47;14.07;;;13.37;;
6121;SDS011;3091;51.506;7.672;2023-02-08T08:52:13;12.80;;;12.40;;
6121;SDS011;3091;51.506;7.672;2023-02-08T08:54:40;13.13;;;12.73;;
6121;SDS011;3091;51.506;7.672;2023-02-08T08:57:06;12.80;;;12.40;;
6121;SDS011;3091;51.506;7.672;2023-02-08T08:59:35;13.97;;;13.47;;
6121;SDS011;3091;51.506;7.672;2023-02-08T09:02:01;13.83;;;13.33;;
6121;SDS011;3091;51.506;7.672;2023-02-08T09:04:28;14.20;;;13.70;;
6121;SDS011;3091;51.506;7.672;2023-02-08T09:06:54;14.37;;;13.87;;
6121;SDS011;3091;51.506;7.672;2023-02-08T09:09:21;13.40;;;12.90;;
6121;SDS011;3091;51.506;7.672;2023-02-08T09:11:47;12.90;;;12.50;;
6121;SDS011;3091;51.506;7.672;2023-02-08T09:14:13;13.60;;;13.10;;
6121;SDS011;3091;51.506;7.672;2023-02-08T09:16:41;13.20;;;12.70;;
6121;SDS011;3091;51.506;7.672;2023-02-08T09:19:11;13.50;;;13.00;;
6121;SDS011;3091;51.506;7.672;2023-02-08T09:21:38;14.67;;;14.17;;
6121;SDS011;3091;51.506;7.672;2023-02-08T09:24:08;14.97;;;14.37;;
6121;SDS011;3091;51.506;7.672;2023-02-08T09:26:34;15.60;;;15.00;;
6121;SDS011;3091;51.506;7.672;2023-02-08T09:29:00;14.83;;;14.23;;
6121;SDS011;3091;51.506;7.672;2023-02-08T09:31:28;15.13;;;14.43;;
6121;SDS011;3091;51.506;7.672;2023-02-08T09:33:54;15.63;;;14.93;;
6121;SDS011;3091;51.506;7.672;2023-02-08T09:36:21;15.37;;;14.77;;
6121;SDS011;3091;51.506;7.672;2023-02-08T09:38:48;15.10;;;14.50;;
6121;SDS011;3091;51.506;7.672;2023-02-08T09:46:42;14.13;;;13.43;;
6121;SDS011;3091;51.506;7.672;2023-02-08T09:49:13;13.90;;;13.40;;
6121;SDS011;3091;51.506;7.672;2023-02-08T09:51:50;16.60;;;15.73;;
6121;SDS011;3091;51.506;7.672;2023-02-08T09:54:25;15.57;;;14.97;;
6121;SDS011;3091;51.506;7.672;2023-02-08T09:56:52;13.43;;;12.93;;
6121;SDS011;3091;51.506;7.672;2023-02-08T09:59:22;13.40;;;12.90;;
6121;SDS011;3091;51.506;7.672;2023-02-08T10:01:50;14.13;;;13.60;;
6121;SDS011;3091;51.506;7.672;2023-02-08T10:04:27;14.07;;;13.57;;
6121;SDS011;3091;51.506;7.672;2023-02-08T10:06:54;14.07;;;13.50;;
6121;SDS011;3091;51.506;7.672;2023-02-08T10:09:21;13.90;;;13.40;;
6121;SDS011;3091;51.506;7.672;2023-02-08T10:11:56;14.87;;;14.27;;
6121;SDS011;3091;51.506;7.672;2023-02-08T10:16:58;14.20;;;13.70;;
6121;SDS011;3091;51.506;7.672;2023-02-08T10:19:35;13.70;;;13.20;;
6121;SDS011;3091;51.506;7.672;2023-02-08T10:22:20;13.70;;;13.20;;
6121;SDS011;3091;51.506;7.672;2023-02-08T10:32:57;13.60;;;13.07;;
6121;SDS011;3091;51.506;7.672;2023-02-08T10:35:26;14.47;;;13.93;;
6121;SDS011;3091;51.506;7.672;2023-02-08T10:37:52;14.40;;;13.90;;
6121;SDS011;3091;51.506;7.672;2023-02-08T10:40:28;14.30;;;13.80;;
6121;SDS011;3091;51.506;7.672;2023-02-08T10:43:01;14.70;;;14.20;;
6121;SDS011;3091;51.506;7.672;2023-02-08T10:45:29;14.70;;;14.13;;
6121;SDS011;3091;51.506;7.672;2023-02-08T10:47:57;14.60;;;14.00;;
6121;SDS011;3091;51.506;7.672;2023-02-08T10:50:35;13.93;;;13.43;;
6121;SDS011;3091;51.506;7.672;2023-02-08T10:53:02;13.80;;;13.30;;
6121;SDS011;3091;51.506;7.672;2023-02-08T10:55:29;14.00;;;13.50;;
6121;SDS011;3091;51.506;7.672;2023-02-08T10:57:56;12.83;;;12.43;;
6121;SDS011;3091;51.506;7.672;2023-02-08T11:00:24;13.80;;;13.30;;
6121;SDS011;3091;51.506;7.672;2023-02-08T11:02:51;13.37;;;12.87;;
6121;SDS011;3091;51.506;7.672;2023-02-08T11:05:19;13.40;;;12.90;;
6121;SDS011;3091;51.506;7.672;2023-02-08T11:07:47;14.27;;;13.77;;
6121;SDS011;3091;51.506;7.672;2023-02-08T11:10:29;13.60;;;13.10;;
6121;SDS011;3091;51.506;7.672;2023-02-08T11:13:03;13.77;;;13.27;;
6121;SDS011;3091;51.506;7.672;2023-02-08T11:15:38;13.33;;;12.83;;
6121;SDS011;3091;51.506;7.672;2023-02-08T11:18:05;13.30;;;12.80;;
6121;SDS011;3091;51.506;7.672;2023-02-08T11:20:33;14.83;;;14.30;;
6121;SDS011;3091;51.506;7.672;2023-02-08T11:23:01;13.80;;;13.30;;
6121;SDS011;3091;51.506;7.672;2023-02-08T11:25:32;13.60;;;13.10;;
6121;SDS011;3091;51.506;7.672;2023-02-08T11:28:00;13.90;;;13.40;;
6121;SDS011;3091;51.506;7.672;2023-02-08T11:30:26;14.03;;;13.53;;
6121;SDS011;3091;51.506;7.672;2023-02-08T11:35:37;14.33;;;13.73;;
6121;SDS011;3091;51.506;7.672;2023-02-08T11:38:04;13.53;;;13.03;;
6121;SDS011;3091;51.506;7.672;2023-02-08T11:42:57;13.67;;;13.17;;
6121;SDS011;3091;51.506;7.672;2023-02-08T11:45:27;13.80;;;13.30;;
6121;SDS011;3091;51.506;7.672;2023-02-08T11:47:53;14.47;;;13.70;;
6121;SDS011;3091;51.506;7.672;2023-02-08T11:50:24;13.70;;;13.20;;
6121;SDS011;3091;51.506;7.672;2023-02-08T11:52:58;13.70;;;13.20;;
6121;SDS011;3091;51.506;7.672;2023-02-08T11:55:26;14.17;;;13.67;;
6121;SDS011;3091;51.506;7.672;2023-02-08T12:00:20;15.10;;;14.60;;
6121;SDS011;3091;51.506;7.672;2023-02-08T12:02:48;15.17;;;14.67;;
6121;SDS011;3091;51.506;7.672;2023-02-08T12:05:19;15.80;;;15.20;;
6121;SDS011;3091;51.506;7.672;2023-02-08T12:13:31;12.97;;;12.57;;
6121;SDS011;3091;51.506;7.672;2023-02-08T12:18:32;14.10;;;13.60;;
6121;SDS011;3091;51.506;7.672;2023-02-08T12:21:20;13.60;;;13.10;;
6121;SDS011;3091;51.506;7.672;2023-02-08T12:23:48;13.37;;;12.87;;
6121;SDS011;3091;51.506;7.672;2023-02-08T12:29:03;13.47;;;12.97;;
6121;SDS011;3091;51.506;7.672;2023-02-08T12:39:54;13.73;;;13.23;;
6121;SDS011;3091;51.506;7.672;2023-02-08T12:48:25;13.60;;;13.10;;
6121;SDS011;3091;51.506;7.672;2023-02-08T12:51:19;13.27;;;12.80;;
6121;SDS011;3091;51.506;7.672;2023-02-08T12:53:49;13.13;;;12.73;;
6121;SDS011;3091;51.506;7.672;2023-02-08T12:56:21;12.80;;;12.40;;
6121;SDS011;3091;51.506;7.672;2023-02-08T12:58:49;13.80;;;13.30;;
6121;SDS011;3091;51.506;7.672;2023-02-08T13:01:19;13.70;;;13.20;;
6121;SDS011;3091;51.506;7.672;2023-02-08T13:06:26;16.80;;;15.63;;
6121;SDS011;3091;51.506;7.672;2023-02-08T13:08:57;14.13;;;13.63;;
6121;SDS011;3091;51.506;7.672;2023-02-08T13:11:31;14.07;;;13.53;;
6121;SDS011;3091;51.506;7.672;2023-02-08T13:14:44;15.47;;;14.80;;
6121;SDS011;3091;51.506;7.672;2023-02-08T13:16:48;13.83;;;13.33;;
6121;SDS011;3091;51.506;7.672;2023-02-08T13:19:23;13.40;;;12.90;;
6121;SDS011;3091;51.506;7.672;2023-02-08T13:21:50;13.50;;;13.00;;
6121;SDS011;3091;51.506;7.672;2023-02-08T13:26:46;13.80;;;13.30;;
6121;SDS011;3091;51.506;7.672;2023-02-08T13:29:14;13.17;;;12.67;;
6121;SDS011;3091;51.506;7.672;2023-02-08T13:31:43;14.27;;;13.67;;
6121;SDS011;3091;51.506;7.672;2023-02-08T13:34:14;14.37;;;13.77;;
6121;SDS011;3091;51.506;7.672;2023-02-08T13:36:52;13.37;;;12.87;;
6121;SDS011;3091;51.506;7.672;2023-02-08T13:39:37;14.33;;;13.73;;
6121;SDS011;3091;51.506;7.672;2023-02-08T13:42:04;15.67;;;15.07;;
6121;SDS011;3091;51.506;7.672;2023-02-08T13:44:32;14.23;;;13.73;;
6121;SDS011;3091;51.506;7.672;2023-02-08T13:47:00;14.03;;;13.53;;
6121;SDS011;3091;51.506;7.672;2023-02-08T13:52:07;13.37;;;12.87;;
6121;SDS011;3091;51.506;7.672;2023-02-08T13:54:34;14.87;;;14.17;;
6121;SDS011;3091;51.506;7.672;2023-02-08T13:57:00;13.10;;;12.60;;
6121;SDS011;3091;51.506;7.672;2023-02-08T14:04:39;13.03;;;12.53;;
6121;SDS011;3091;51.506;7.672;2023-02-08T14:07:11;13.00;;;12.57;;
6121;SDS011;3091;51.506;7.672;2023-02-08T14:12:36;13.53;;;13.03;;
6121;SDS011;3091;51.506;7.672;2023-02-08T14:17:42;14.80;;;14.20;;
6121;SDS011;3091;51.506;7.672;2023-02-08T14:20:16;13.00;;;12.60;;
6121;SDS011;3091;51.506;7.672;2023-02-08T14:22:48;14.47;;;13.87;;
6121;SDS011;3091;51.506;7.672;2023-02-08T14:25:25;12.90;;;12.40;;
6121;SDS011;3091;51.506;7.672;2023-02-08T14:27:58;13.80;;;13.27;;
6121;SDS011;3091;51.506;7.672;2023-02-08T14:30:29;13.57;;;13.07;;
6121;SDS011;3091;51.506;7.672;2023-02-08T14:35:28;13.60;;;13.00;;
6121;SDS011;3091;51.506;7.672;2023-02-08T14:40:51;14.33;;;13.63;;
6121;SDS011;3091;51.506;7.672;2023-02-08T14:45:44;13.27;;;12.77;;
6121;SDS011;3091;51.506;7.672;2023-02-08T14:51:01;13.60;;;13.10;;
6121;SDS011;3091;51.506;7.672;2023-02-08T14:58:40;13.40;;;12.80;;
6121;SDS011;3091;51.506;7.672;2023-02-08T15:01:16;12.73;;;12.30;;
6121;SDS011;3091;51.506;7.672;2023-02-08T15:03:42;13.43;;;12.93;;
6121;SDS011;3091;51.506;7.672;2023-02-08T15:06:16;12.33;;;11.93;;
6121;SDS011;3091;51.506;7.672;2023-02-08T15:08:48;12.97;;;12.50;;
6121;SDS011;3091;51.506;7.672;2023-02-08T15:11:24;13.03;;;12.53;;
6121;SDS011;3091;51.506;7.672;2023-02-08T15:13:52;14.73;;;14.23;;
6121;SDS011;3091;51.506;7.672;2023-02-08T15:16:21;13.00;;;12.50;;
6121;SDS011;3091;51.506;7.672;2023-02-08T15:18:49;13.50;;;13.00;;
6121;SDS011;3091;51.506;7.672;2023-02-08T15:21:19;12.40;;;12.00;;
6121;SDS011;3091;51.506;7.672;2023-02-08T15:24:00;12.40;;;12.00;;
6121;SDS011;3091;51.506;7.672;2023-02-08T15:26:27;12.53;;;12.13;;
6121;SDS011;3091;51.506;7.672;2023-02-08T15:28:53;13.97;;;13.27;;
6121;SDS011;3091;51.506;7.672;2023-02-08T15:31:20;12.90;;;12.40;;
6121;SDS011;3091;51.506;7.672;2023-02-08T15:33:47;12.60;;;12.20;;
6121;SDS011;3091;51.506;7.672;2023-02-08T15:36:17;12.40;;;12.00;;
6121;SDS011;3091;51.506;7.672;2023-02-08T15:38:45;12.87;;;12.37;;
6121;SDS011;3091;51.506;7.672;2023-02-08T15:41:13;12.97;;;12.47;;
6121;SDS011;3091;51.506;7.672;2023-02-08T15:43:40;12.77;;;12.27;;
6121;SDS011;3091;51.506;7.672;2023-02-08T15:46:15;12.70;;;12.20;;
6121;SDS011;3091;51.506;7.672;2023-02-08T15:48:41;12.83;;;12.33;;
6121;SDS011;3091;51.506;7.672;2023-02-08T15:51:10;13.40;;;12.80;;
6121;SDS011;3091;51.506;7.672;2023-02-08T15:53:39;12.70;;;12.30;;
6121;SDS011;3091;51.506;7.672;2023-02-08T15:56:06;12.60;;;12.20;;
6121;SDS011;3091;51.506;7.672;2023-02-08T15:58:37;12.20;;;11.80;;
6121;SDS011;3091;51.506;7.672;2023-02-08T16:01:05;12.60;;;12.20;;
6121;SDS011;3091;51.506;7.672;2023-02-08T16:03:32;12.57;;;12.17;;
6121;SDS011;3091;51.506;7.672;2023-02-08T16:05:59;12.33;;;11.93;;
6121;SDS011;3091;51.506;7.672;2023-02-08T16:08:30;13.63;;;13.13;;
6121;SDS011;3091;51.506;7.672;2023-02-08T16:11:00;12.70;;;12.30;;
6121;SDS011;3091;51.506;7.672;2023-02-08T16:13:37;12.60;;;12.20;;
6121;SDS011;3091;51.506;7.672;2023-02-08T16:16:15;12.60;;;12.20;;
6121;SDS011;3091;51.506;7.672;2023-02-08T16:21:30;12.50;;;12.10;;
6121;SDS011;3091;51.506;7.672;2023-02-08T16:26:40;11.83;;;11.43;;
6121;SDS011;3091;51.506;7.672;2023-02-08T16:29:15;12.30;;;11.90;;
6121;SDS011;3091;51.506;7.672;2023-02-08T16:31:43;12.27;;;11.87;;
6121;SDS011;3091;51.506;7.672;2023-02-08T16:34:18;12.20;;;11.80;;
6121;SDS011;3091;51.506;7.672;2023-02-08T16:36:49;12.60;;;12.20;;
6121;SDS011;3091;51.506;7.672;2023-02-08T16:44:30;13.03;;;12.63;;
6121;SDS011;3091;51.506;7.672;2023-02-08T16:46:57;12.60;;;12.20;;
6121;SDS011;3091;51.506;7.672;2023-02-08T16:49:23;12.33;;;11.93;;
6121;SDS011;3091;51.506;7.672;2023-02-08T16:51:50;12.40;;;12.00;;
6121;SDS011;3091;51.506;7.672;2023-02-08T16:54:20;12.70;;;12.30;;
6121;SDS011;3091;51.506;7.672;2023-02-08T16:56:49;12.70;;;12.30;;
6121;SDS011;3091;51.506;7.672;2023-02-08T16:59:19;12.80;;;12.40;;
6121;SDS011;3091;51.506;7.672;2023-02-08T17:01:46;13.40;;;12.90;;
6121;SDS011;3091;51.506;7.672;2023-02-08T17:04:14;14.50;;;13.87;;
6121;SDS011;3091;51.506;7.672;2023-02-08T17:06:40;13.23;;;12.73;;
6121;SDS011;3091;51.506;7.672;2023-02-08T17:09:07;13.00;;;12.60;;